sensor_id;sensor_type;location;lat;lon;timestamp;pressure;altitude;pressure_sealevel;temperature;humidity
19086;BME280;9675;51.538;6.728;2023-03-23T00:02:02;100063.84;;;12.55;100.00
19086;BME280;9675;51.538;6.728;2023-03-23T00:04:30;100066.41;;;12.55;100.00
19086;BME280;9675;51.538;6.728;2023-03-23T00:06:58;100048.31;;;12.53;100.00
19086;BME280;9675;51.538;6.728;2023-03-23T00:09:28;100041.44;;;12.54;100.00
19086;BME280;9675;51.538;6.728;2023-03-23T00:12:00;100034.53;;;12.53;100.00
19086;BME280;9675;51.538;6.728;2023-03-23T00:14:32;100050.03;;;12.53;100.00
19086;BME280;9675;51.538;6.728;2023-03-23T00:17:07;100048.25;;;12.52;100.00
19086;BME280;9675;51.538;6.728;2023-03-23T00:19:37;100043.03;;;12.50;100.00
19086;BME280;9675;51.538;6.728;2023-03-23T00:22:14;100043.03;;;12.50;100.00
19086;BME280;9675;51.538;6.728;2023-03-23T00:24:43;100041.34;;;12.51;100.00
19086;BME280;9675;51.538;6.728;2023-03-23T00:27:11;100029.38;;;12.53;100.00
19086;BME280;9675;51.538;6.728;2023-03-23T00:29:40;100025.84;;;12.51;100.00
19086;BME280;9675;51.538;6.728;2023-03-23T00:32:12;100033.53;;;12.49;100.00
19086;BME280;9675;51.538;6.728;2023-03-23T00:34:40;100036.19;;;12.51;100.00
19086;BME280;9675;51.538;6.728;2023-03-23T00:37:09;100033.66;;;12.52;100.00
19086;BME280;9675;51.538;6.728;2023-03-23T00:39:38;100027.59;;;12.52;100.00
19086;BME280;9675;51.538;6.728;2023-03-23T00:42:13;100035.34;;;12.52;100.00
19086;BME280;9675;51.538;6.728;2023-03-23T00:44:40;100024.09;;;12.50;100.00
19086;BME280;9675;51.538;6.728;2023-03-23T00:47:07;100028.50;;;12.52;100.00
19086;BME280;9675;51.538;6.728;2023-03-23T00:49:36;100025.91;;;12.52;100.00
19086;BME280;9675;51.538;6.728;2023-03-23T00:52:06;100020.69;;;12.51;100.00
19086;BME280;9675;51.538;6.728;2023-03-23T00:54:33;100008.59;;;12.50;100.00
19086;BME280;9675;51.538;6.728;2023-03-23T00:57:05;100015.63;;;12.54;100.00
19086;BME280;9675;51.538;6.728;2023-03-23T00:59:32;100005.19;;;12.51;100.00
19086;BME280;9675;51.538;6.728;2023-03-23T01:01:59;100018.97;;;12.51;100.00
19086;BME280;9675;51.538;6.728;2023-03-23T01:04:26;100019.84;;;12.52;100.00
19086;BME280;9675;51.538;6.728;2023-03-23T01:06:57;100035.34;;;12.52;100.00
19086;BME280;9675;51.538;6.728;2023-03-23T01:09:26;100029.31;;;12.51;100.00
19086;BME280;9675;51.538;6.728;2023-03-23T01:11:53;100025.84;;;12.51;100.00
19086;BME280;9675;51.538;6.728;2023-03-23T01:14:23;100026.69;;;12.50;100.00
19086;BME280;9675;51.538;6.728;2023-03-23T01:16:51;100012.94;;;12.51;100.00
19086;BME280;9675;51.538;6.728;2023-03-23T01:19:18;100015.56;;;12.52;100.00
19086;BME280;9675;51.538;6.728;2023-03-23T01:21:45;100009.44;;;12.49;100.00
19086;BME280;9675;51.538;6.728;2023-03-23T01:24:12;99994.88;;;12.51;100.00
19086;BME280;9675;51.538;6.728;2023-03-23T01:26:39;99998.28;;;12.50;100.00
19086;BME280;9675;51.538;6.728;2023-03-23T01:29:06;99984.53;;;12.51;100.00
19086;BME280;9675;51.538;6.728;2023-03-23T01:31:34;99973.31;;;12.50;100.00
19086;BME280;9675;51.538;6.728;2023-03-23T01:34:02;99967.28;;;12.50;100.00
19086;BME280;9675;51.538;6.728;2023-03-23T01:36:30;99967.28;;;12.50;100.00
19086;BME280;9675;51.538;6.728;2023-03-23T01:39:00;99972.44;;;12.50;100.00
19086;BME280;9675;51.538;6.728;2023-03-23T01:41:30;99979.38;;;12.51;100.00
19086;BME280;9675;51.538;6.728;2023-03-23T01:44:01;99971.63;;;12.51;100.00
19086;BME280;9675;51.538;6.728;2023-03-23T01:46:31;99969.03;;;12.51;100.00
19086;BME280;9675;51.538;6.728;2023-03-23T01:49:04;99963.94;;;12.52;100.00
19086;BME280;9675;51.538;6.728;2023-03-23T01:51:37;99969.03;;;12.51;100.00
19086;BME280;9675;51.538;6.728;2023-03-23T01:54:12;99958.72;;;12.51;100.00
19086;BME280;9675;51.538;6.728;2023-03-23T01:56:49;99962.22;;;12.53;100.00
19086;BME280;9675;51.538;6.728;2023-03-23T01:59:17;99960.47;;;12.52;100.00
19086;BME280;9675;51.538;6.728;2023-03-23T02:01:46;99961.34;;;12.52;100.00
19086;BME280;9675;51.538;6.728;2023-03-23T02:04:17;99963.94;;;12.52;100.00
19086;BME280;9675;51.538;6.728;2023-03-23T02:06:44;99957.88;;;12.52;100.00
19086;BME280;9675;51.538;6.728;2023-03-23T02:09:12;99955.31;;;12.52;100.00
19086;BME280;9675;51.538;6.728;2023-03-23T02:11:43;99959.63;;;12.53;100.00
19086;BME280;9675;51.538;6.728;2023-03-23T02:14:10;99961.34;;;12.52;100.00
19086;BME280;9675;51.538;6.728;2023-03-23T02:16:45;99950.13;;;12.52;100.00
19086;BME280;9675;51.538;6.728;2023-03-23T02:19:57;99959.63;;;12.53;100.00
19086;BME280;9675;51.538;6.728;2023-03-23T02:23:26;99940.63;;;12.51;100.00
19086;BME280;9675;51.538;6.728;2023-03-23T02:26:19;99958.72;;;12.51;100.00
19086;BME280;9675;51.538;6.728;2023-03-23T02:29:18;99952.66;;;12.50;100.00
19086;BME280;9675;51.538;6.728;2023-03-23T02:32:16;99938.09;;;12.52;100.00
19086;BME280;9675;51.538;6.728;2023-03-23T02:34:51;99928.59;;;12.51;100.00
19086;BME280;9675;51.538;6.728;2023-03-23T02:37:24;99920.03;;;12.52;100.00
19086;BME280;9675;51.538;6.728;2023-03-23T02:40:01;99913.97;;;12.52;100.00
19086;BME280;9675;51.538;6.728;2023-03-23T02:42:36;99929.47;;;12.52;100.00
19086;BME280;9675;51.538;6.728;2023-03-23T02:45:07;99905.38;;;12.51;100.00
19086;BME280;9675;51.538;6.728;2023-03-23T02:47:41;99908.00;;;12.53;100.00
19086;BME280;9675;51.538;6.728;2023-03-23T02:50:20;99928.59;;;12.51;100.00
19086;BME280;9675;51.538;6.728;2023-03-23T02:53:03;99921.78;;;12.53;100.00
19086;BME280;9675;51.538;6.728;2023-03-23T02:55:41;99919.19;;;12.53;100.00
19086;BME280;9675;51.538;6.728;2023-03-23T02:58:10;99919.97;;;12.51;100.00
19086;BME280;9675;51.538;6.728;2023-03-23T03:00:39;99908.81;;;12.52;100.00
19086;BME280;9675;51.538;6.728;2023-03-23T03:03:17;99914.81;;;12.51;100.00
19086;BME280;9675;51.538;6.728;2023-03-23T03:05:59;99920.81;;;12.50;100.00
19086;BME280;9675;51.538;6.728;2023-03-23T03:08:41;99918.22;;;12.50;100.00
19086;BME280;9675;51.538;6.728;2023-03-23T03:11:13;99920.81;;;12.50;100.00
19086;BME280;9675;51.538;6.728;2023-03-23T03:13:50;99929.44;;;12.50;100.00
19086;BME280;9675;51.538;6.728;2023-03-23T03:16:27;99916.53;;;12.50;100.00
19086;BME280;9675;51.538;6.728;2023-03-23T03:19:03;99917.41;;;12.51;100.00
19086;BME280;9675;51.538;6.728;2023-03-23T03:21:40;99910.47;;;12.50;100.00
19086;BME280;9675;51.538;6.728;2023-03-23T03:24:11;99897.53;;;12.48;100.00
19086;BME280;9675;51.538;6.728;2023-03-23T03:26:44;99901.84;;;12.48;100.00
19086;BME280;9675;51.538;6.728;2023-03-23T03:29:14;99902.72;;;12.48;100.00
19086;BME280;9675;51.538;6.728;2023-03-23T03:31:45;99907.00;;;12.48;100.00
19086;BME280;9675;51.538;6.728;2023-03-23T03:34:15;99906.13;;;12.47;100.00
19086;BME280;9675;51.538;6.728;2023-03-23T03:36:46;99907.00;;;12.48;100.00
19086;BME280;9675;51.538;6.728;2023-03-23T03:39:16;99895.78;;;12.47;100.00
19086;BME280;9675;51.538;6.728;2023-03-23T03:41:45;99901.84;;;12.48;100.00
19086;BME280;9675;51.538;6.728;2023-03-23T03:44:13;99904.38;;;12.46;100.00
19086;BME280;9675;51.538;6.728;2023-03-23T03:46:40;99904.38;;;12.46;100.00
19086;BME280;9675;51.538;6.728;2023-03-23T03:49:10;99905.31;;;12.50;100.00
19086;BME280;9675;51.538;6.728;2023-03-23T03:51:39;99903.56;;;12.49;100.00
19086;BME280;9675;51.538;6.728;2023-03-23T03:54:08;99894.91;;;12.47;100.00
19086;BME280;9675;51.538;6.728;2023-03-23T03:56:36;99908.72;;;12.49;100.00
19086;BME280;9675;51.538;6.728;2023-03-23T03:59:06;99902.72;;;12.48;100.00
19086;BME280;9675;51.538;6.728;2023-03-23T04:01:36;99906.13;;;12.47;100.00
19086;BME280;9675;51.538;6.728;2023-03-23T04:04:04;99905.25;;;12.47;100.00
19086;BME280;9675;51.538;6.728;2023-03-23T04:06:33;99910.41;;;12.47;100.00
19086;BME280;9675;51.538;6.728;2023-03-23T04:09:03;99906.06;;;12.46;100.00
19086;BME280;9675;51.538;6.728;2023-03-23T04:11:33;99911.22;;;12.46;100.00
19086;BME280;9675;51.538;6.728;2023-03-23T04:14:01;99912.13;;;12.46;100.00
19086;BME280;9675;51.538;6.728;2023-03-23T04:16:28;99908.66;;;12.46;100.00
19086;BME280;9675;51.538;6.728;2023-03-23T04:18:56;99916.41;;;12.46;100.00
19086;BME280;9675;51.538;6.728;2023-03-23T04:21:23;99907.00;;;12.48;100.00
19086;BME280;9675;51.538;6.728;2023-03-23T04:23:54;99919.91;;;12.48;100.00
19086;BME280;9675;51.538;6.728;2023-03-23T04:26:25;99922.50;;;12.48;100.00
19086;BME280;9675;51.538;6.728;2023-03-23T04:28:53;99924.16;;;12.46;100.00
19086;BME280;9675;51.538;6.728;2023-03-23T04:31:21;99923.25;;;12.45;100.00
19086;BME280;9675;51.538;6.728;2023-03-23T04:33:50;99913.00;;;12.47;100.00
19086;BME280;9675;51.538;6.728;2023-03-23T04:36:19;99909.47;;;12.45;100.00
19086;BME280;9675;51.538;6.728;2023-03-23T04:38:48;99925.91;;;12.47;100.00
19086;BME280;9675;51.538;6.728;2023-03-23T04:41:20;99925.06;;;12.48;100.00
19086;BME280;9675;51.538;6.728;2023-03-23T04:43:47;99925.91;;;12.47;100.00
19086;BME280;9675;51.538;6.728;2023-03-23T04:46:19;99930.19;;;12.46;100.00
19086;BME280;9675;51.538;6.728;2023-03-23T04:48:47;99929.31;;;12.46;100.00
19086;BME280;9675;51.538;6.728;2023-03-23T04:51:14;99925.03;;;12.46;100.00
19086;BME280;9675;51.538;6.728;2023-03-23T04:53:42;99937.88;;;12.45;100.00
19086;BME280;9675;51.538;6.728;2023-03-23T04:56:09;99943.97;;;12.47;100.00
19086;BME280;9675;51.538;6.728;2023-03-23T04:58:36;99948.31;;;12.48;100.00
19086;BME280;9675;51.538;6.728;2023-03-23T05:01:05;99956.88;;;12.47;100.00
19086;BME280;9675;51.538;6.728;2023-03-23T05:03:34;99949.91;;;12.44;100.00
19086;BME280;9675;51.538;6.728;2023-03-23T05:06:02;99946.56;;;12.47;100.00
19086;BME280;9675;51.538;6.728;2023-03-23T05:08:29;99937.00;;;12.44;100.00
19086;BME280;9675;51.538;6.728;2023-03-23T05:10:59;99952.59;;;12.47;100.00
19086;BME280;9675;51.538;6.728;2023-03-23T05:13:28;99941.41;;;12.47;100.00
19086;BME280;9675;51.538;6.728;2023-03-23T05:15:55;99941.41;;;12.47;100.00
19086;BME280;9675;51.538;6.728;2023-03-23T05:18:23;99951.72;;;12.47;100.00
19086;BME280;9675;51.538;6.728;2023-03-23T05:20:53;99953.47;;;12.48;100.00
19086;BME280;9675;51.538;6.728;2023-03-23T05:23:20;99950.91;;;12.48;100.00
19086;BME280;9675;51.538;6.728;2023-03-23T05:25:53;99962.94;;;12.47;100.00
19086;BME280;9675;51.538;6.728;2023-03-23T05:28:21;99955.19;;;12.47;100.00
19086;BME280;9675;51.538;6.728;2023-03-23T05:30:48;99956.88;;;12.47;100.00
19086;BME280;9675;51.538;6.728;2023-03-23T05:33:16;99960.25;;;12.44;100.00
19086;BME280;9675;51.538;6.728;2023-03-23T05:35:43;99959.47;;;12.47;100.00
19086;BME280;9675;51.538;6.728;2023-03-23T05:38:14;99964.63;;;12.47;100.00
19086;BME280;9675;51.538;6.728;2023-03-23T05:40:42;99960.25;;;12.44;100.00
19086;BME280;9675;51.538;6.728;2023-03-23T05:43:09;99962.06;;;12.47;100.00
19086;BME280;9675;51.538;6.728;2023-03-23T05:45:37;99960.28;;;12.46;100.00
19086;BME280;9675;51.538;6.728;2023-03-23T05:48:04;99967.22;;;12.47;100.00
19086;BME280;9675;51.538;6.728;2023-03-23T05:50:32;99966.34;;;12.46;100.00
19086;BME280;9675;51.538;6.728;2023-03-23T05:52:59;99962.06;;;12.47;100.00
19086;BME280;9675;51.538;6.728;2023-03-23T05:55:27;99955.06;;;12.44;100.00
19086;BME280;9675;51.538;6.728;2023-03-23T05:57:54;99958.53;;;12.45;100.00
19086;BME280;9675;51.538;6.728;2023-03-23T06:00:22;99960.28;;;12.46;100.00
19086;BME280;9675;51.538;6.728;2023-03-23T06:02:49;99962.94;;;12.47;100.00
19086;BME280;9675;51.538;6.728;2023-03-23T06:05:17;99968.97;;;12.48;100.00
19086;BME280;9675;51.538;6.728;2023-03-23T06:07:45;99962.06;;;12.47;100.00
19086;BME280;9675;51.538;6.728;2023-03-23T06:10:12;99961.13;;;12.45;100.00
19086;BME280;9675;51.538;6.728;2023-03-23T06:12:40;99972.38;;;12.47;100.00
19086;BME280;9675;51.538;6.728;2023-03-23T06:15:09;99960.28;;;12.46;100.00
19086;BME280;9675;51.538;6.728;2023-03-23T06:17:37;99970.69;;;12.47;100.00
19086;BME280;9675;51.538;6.728;2023-03-23T06:20:05;99971.44;;;12.45;100.00
19086;BME280;9675;51.538;6.728;2023-03-23T06:22:36;99976.59;;;12.45;100.00
19086;BME280;9675;51.538;6.728;2023-03-23T06:25:06;99977.53;;;12.47;100.00
19086;BME280;9675;51.538;6.728;2023-03-23T06:27:33;99979.31;;;12.49;100.00
19086;BME280;9675;51.538;6.728;2023-03-23T06:30:04;99978.44;;;12.49;100.00
19086;BME280;9675;51.538;6.728;2023-03-23T06:32:32;99975.00;;;12.48;100.00
19086;BME280;9675;51.538;6.728;2023-03-23T06:35:00;99975.84;;;12.49;100.00
19086;BME280;9675;51.538;6.728;2023-03-23T06:37:27;99986.19;;;12.49;100.00
19086;BME280;9675;51.538;6.728;2023-03-23T06:39:54;99974.97;;;12.47;100.00
19086;BME280;9675;51.538;6.728;2023-03-23T06:42:22;99979.28;;;12.48;100.00
19086;BME280;9675;51.538;6.728;2023-03-23T06:44:51;99982.75;;;12.48;100.00
19086;BME280;9675;51.538;6.728;2023-03-23T06:47:21;99985.41;;;12.51;100.00
19086;BME280;9675;51.538;6.728;2023-03-23T06:49:49;99984.53;;;12.51;100.00
19086;BME280;9675;51.538;6.728;2023-03-23T06:52:17;99989.75;;;12.52;100.00
19086;BME280;9675;51.538;6.728;2023-03-23T06:54:44;99987.13;;;12.51;100.00
19086;BME280;9675;51.538;6.728;2023-03-23T06:57:11;99996.63;;;12.52;100.00
19086;BME280;9675;51.538;6.728;2023-03-23T06:59:38;100000.03;;;12.51;100.00
19086;BME280;9675;51.538;6.728;2023-03-23T07:02:05;99994.91;;;12.52;100.00
19086;BME280;9675;51.538;6.728;2023-03-23T07:04:34;99998.38;;;12.53;100.00
19086;BME280;9675;51.538;6.728;2023-03-23T07:07:01;100010.34;;;12.51;100.00
19086;BME280;9675;51.538;6.728;2023-03-23T07:09:28;100017.28;;;12.52;100.00
19086;BME280;9675;51.538;6.728;2023-03-23T07:11:56;100013.00;;;12.52;100.00
19086;BME280;9675;51.538;6.728;2023-03-23T07:14:23;100017.34;;;12.55;100.00
19086;BME280;9675;51.538;6.728;2023-03-23T07:16:50;100030.31;;;12.56;100.00
19086;BME280;9675;51.538;6.728;2023-03-23T07:19:17;100019.09;;;12.56;100.00
19086;BME280;9675;51.538;6.728;2023-03-23T07:21:46;100026.84;;;12.56;100.00
19086;BME280;9675;51.538;6.728;2023-03-23T07:24:13;100024.28;;;12.56;100.00
19086;BME280;9675;51.538;6.728;2023-03-23T07:26:40;100019.09;;;12.56;100.00
19086;BME280;9675;51.538;6.728;2023-03-23T07:29:08;100018.28;;;12.57;100.00
19086;BME280;9675;51.538;6.728;2023-03-23T07:31:38;100019.16;;;12.57;100.00
19086;BME280;9675;51.538;6.728;2023-03-23T07:34:09;100015.69;;;12.57;100.00
19086;BME280;9675;51.538;6.728;2023-03-23T07:36:36;100021.78;;;12.59;100.00
19086;BME280;9675;51.538;6.728;2023-03-23T07:39:05;100013.19;;;12.60;100.00
19086;BME280;9675;51.538;6.728;2023-03-23T07:41:35;100026.09;;;12.60;100.00
19086;BME280;9675;51.538;6.728;2023-03-23T07:44:03;100034.78;;;12.62;100.00
19086;BME280;9675;51.538;6.728;2023-03-23T07:46:31;100044.22;;;12.61;100.00
19086;BME280;9675;51.538;6.728;2023-03-23T07:48:58;100032.19;;;12.62;100.00
19086;BME280;9675;51.538;6.728;2023-03-23T07:51:30;100033.13;;;12.64;100.00
19086;BME280;9675;51.538;6.728;2023-03-23T07:53:59;100032.28;;;12.65;100.00
19086;BME280;9675;51.538;6.728;2023-03-23T07:56:29;100024.53;;;12.65;100.00
19086;BME280;9675;51.538;6.728;2023-03-23T07:58:57;100027.97;;;12.64;100.00
19086;BME280;9675;51.538;6.728;2023-03-23T08:01:24;100031.44;;;12.66;100.00
19086;BME280;9675;51.538;6.728;2023-03-23T08:03:51;100021.13;;;12.66;100.00
19086;BME280;9675;51.538;6.728;2023-03-23T08:06:20;100015.19;;;12.68;100.00
19086;BME280;9675;51.538;6.728;2023-03-23T08:08:49;100029.00;;;12.70;100.00
19086;BME280;9675;51.538;6.728;2023-03-23T08:11:16;100029.81;;;12.69;100.00
19086;BME280;9675;51.538;6.728;2023-03-23T08:13:46;100022.94;;;12.70;100.00
19086;BME280;9675;51.538;6.728;2023-03-23T08:16:13;100029.88;;;12.71;100.00
19086;BME280;9675;51.538;6.728;2023-03-23T08:18:40;100023.88;;;12.72;100.00
19086;BME280;9675;51.538;6.728;2023-03-23T08:21:08;100024.75;;;12.72;100.00
19086;BME280;9675;51.538;6.728;2023-03-23T08:23:36;100032.56;;;12.75;100.00
19086;BME280;9675;51.538;6.728;2023-03-23T08:26:04;100025.63;;;12.73;100.00
19086;BME280;9675;51.538;6.728;2023-03-23T08:28:32;100024.00;;;12.76;100.00
19086;BME280;9675;51.538;6.728;2023-03-23T08:31:06;100031.75;;;12.76;100.00
19086;BME280;9675;51.538;6.728;2023-03-23T08:33:34;100038.66;;;12.77;100.00
19086;BME280;9675;51.538;6.728;2023-03-23T08:36:01;100042.13;;;12.78;100.00
19086;BME280;9675;51.538;6.728;2023-03-23T08:38:29;100045.53;;;12.77;100.00
19086;BME280;9675;51.538;6.728;2023-03-23T08:40:58;100044.75;;;12.80;100.00
19086;BME280;9675;51.538;6.728;2023-03-23T08:43:26;100038.72;;;12.79;100.00
19086;BME280;9675;51.538;6.728;2023-03-23T08:45:57;100046.50;;;12.81;100.00
19086;BME280;9675;51.538;6.728;2023-03-23T08:48:26;100042.19;;;12.81;100.00
19086;BME280;9675;51.538;6.728;2023-03-23T08:50:53;100049.13;;;12.82;100.00
19086;BME280;9675;51.538;6.728;2023-03-23T08:53:20;100047.38;;;12.81;100.00
19086;BME280;9675;51.538;6.728;2023-03-23T08:55:48;100050.00;;;12.83;100.00
19086;BME280;9675;51.538;6.728;2023-03-23T08:58:15;100039.66;;;12.83;100.00
19086;BME280;9675;51.538;6.728;2023-03-23T09:00:43;100041.44;;;12.84;100.00
19086;BME280;9675;51.538;6.728;2023-03-23T09:03:15;100048.28;;;12.83;100.00
19086;BME280;9675;51.538;6.728;2023-03-23T09:05:44;100042.31;;;12.84;100.00
19086;BME280;9675;51.538;6.728;2023-03-23T09:08:12;100047.47;;;12.84;100.00
19086;BME280;9675;51.538;6.728;2023-03-23T09:10:39;100039.75;;;12.86;100.00
19086;BME280;9675;51.538;6.728;2023-03-23T09:13:07;100081.97;;;12.86;100.00
19086;BME280;9675;51.538;6.728;2023-03-23T09:15:34;100142.25;;;12.87;100.00
19086;BME280;9675;51.538;6.728;2023-03-23T09:18:01;100140.38;;;12.81;100.00
19086;BME280;9675;51.538;6.728;2023-03-23T09:20:29;100147.13;;;12.76;100.00
19086;BME280;9675;51.538;6.728;2023-03-23T09:22:59;100133.25;;;12.72;100.00
19086;BME280;9675;51.538;6.728;2023-03-23T09:25:28;100142.63;;;12.69;100.00
19086;BME280;9675;51.538;6.728;2023-03-23T09:27:58;100133.00;;;12.65;100.00
19086;BME280;9675;51.538;6.728;2023-03-23T09:30:27;100141.63;;;12.64;100.00
19086;BME280;9675;51.538;6.728;2023-03-23T09:32:56;100145.84;;;12.62;100.00
19086;BME280;9675;51.538;6.728;2023-03-23T09:35:24;100148.34;;;12.59;100.00
19086;BME280;9675;51.538;6.728;2023-03-23T09:37:52;100149.13;;;12.56;100.00
19086;BME280;9675;51.538;6.728;2023-03-23T09:40:23;100149.91;;;12.54;100.00
19086;BME280;9675;51.538;6.728;2023-03-23T09:43:18;100155.78;;;12.50;100.00
19086;BME280;9675;51.538;6.728;2023-03-23T09:45:56;100157.47;;;12.48;100.00
19086;BME280;9675;51.538;6.728;2023-03-23T09:48:48;100167.66;;;12.43;100.00
19086;BME280;9675;51.538;6.728;2023-03-23T09:51:32;100158.09;;;12.41;100.00
19086;BME280;9675;51.538;6.728;2023-03-23T09:54:14;100149.41;;;12.39;100.00
19086;BME280;9675;51.538;6.728;2023-03-23T09:56:46;100158.00;;;12.38;100.00
19086;BME280;9675;51.538;6.728;2023-03-23T09:59:20;100159.66;;;12.35;100.00
19086;BME280;9675;51.538;6.728;2023-03-23T10:01:53;100140.66;;;12.33;100.00
19086;BME280;9675;51.538;6.728;2023-03-23T10:04:32;100131.88;;;12.28;100.00
19086;BME280;9675;51.538;6.728;2023-03-23T10:07:17;100149.94;;;12.27;100.00
19086;BME280;9675;51.538;6.728;2023-03-23T10:09:53;100154.22;;;12.26;100.00
19086;BME280;9675;51.538;6.728;2023-03-23T10:12:30;100171.28;;;12.23;100.00
19086;BME280;9675;51.538;6.728;2023-03-23T10:15:14;100163.53;;;12.23;100.00
19086;BME280;9675;51.538;6.728;2023-03-23T10:17:49;100184.16;;;12.21;100.00
19086;BME280;9675;51.538;6.728;2023-03-23T10:20:40;100172.03;;;12.19;100.00
19086;BME280;9675;51.538;6.728;2023-03-23T10:23:37;100173.69;;;12.17;100.00
19086;BME280;9675;51.538;6.728;2023-03-23T10:26:20;100172.81;;;12.16;100.00
19086;BME280;9675;51.538;6.728;2023-03-23T10:28:57;100179.63;;;12.14;100.00
19086;BME280;9675;51.538;6.728;2023-03-23T10:31:32;100187.28;;;12.11;100.00
19086;BME280;9675;51.538;6.728;2023-03-23T10:34:16;100188.88;;;12.08;100.00
19086;BME280;9675;51.538;6.728;2023-03-23T10:36:59;100187.97;;;12.06;100.00
19086;BME280;9675;51.538;6.728;2023-03-23T10:39:33;100182.72;;;12.04;100.00
19086;BME280;9675;51.538;6.728;2023-03-23T10:42:04;100178.31;;;12.00;100.00
19086;BME280;9675;51.538;6.728;2023-03-23T10:44:34;100173.09;;;11.99;100.00
19086;BME280;9675;51.538;6.728;2023-03-23T10:47:05;100178.25;;;11.99;100.00
19086;BME280;9675;51.538;6.728;2023-03-23T10:49:38;100177.38;;;11.98;100.00
19086;BME280;9675;51.538;6.728;2023-03-23T10:52:24;100177.38;;;11.98;100.00
19086;BME280;9675;51.538;6.728;2023-03-23T10:54:57;100182.53;;;11.98;100.00
19086;BME280;9675;51.538;6.728;2023-03-23T10:57:27;100182.53;;;11.98;100.00
19086;BME280;9675;51.538;6.728;2023-03-23T11:00:04;100178.19;;;11.97;100.00
19086;BME280;9675;51.538;6.728;2023-03-23T11:02:40;100179.84;;;11.95;100.00
19086;BME280;9675;51.538;6.728;2023-03-23T11:05:18;100180.69;;;11.94;100.00
19086;BME280;9675;51.538;6.728;2023-03-23T11:07:52;100178.03;;;11.92;100.00
19086;BME280;9675;51.538;6.728;2023-03-23T11:10:24;100186.63;;;11.91;100.00
19086;BME280;9675;51.538;6.728;2023-03-23T11:12:56;100188.34;;;11.91;100.00
19086;BME280;9675;51.538;6.728;2023-03-23T11:15:30;100181.41;;;11.90;100.00
19086;BME280;9675;51.538;6.728;2023-03-23T11:18:00;100190.91;;;11.91;100.00
19086;BME280;9675;51.538;6.728;2023-03-23T11:20:34;100184.00;;;11.90;100.00
19086;BME280;9675;51.538;6.728;2023-03-23T11:23:13;100174.56;;;11.92;100.00
19086;BME280;9675;51.538;6.728;2023-03-23T11:26:08;100178.91;;;11.93;100.00
19086;BME280;9675;51.538;6.728;2023-03-23T11:28:43;100179.75;;;11.92;100.00
19086;BME280;9675;51.538;6.728;2023-03-23T11:31:13;100181.47;;;11.91;100.00
19086;BME280;9675;51.538;6.728;2023-03-23T11:33:52;100171.09;;;11.90;100.00
19086;BME280;9675;51.538;6.728;2023-03-23T11:36:20;100159.84;;;11.88;100.00
19086;BME280;9675;51.538;6.728;2023-03-23T11:38:55;100167.56;;;11.88;100.00
19086;BME280;9675;51.538;6.728;2023-03-23T11:41:24;100154.66;;;11.88;100.00
19086;BME280;9675;51.538;6.728;2023-03-23T11:43:53;100152.09;;;11.88;100.00
19086;BME280;9675;51.538;6.728;2023-03-23T11:46:33;100153.03;;;11.90;100.00
19086;BME280;9675;51.538;6.728;2023-03-23T11:49:05;100153.25;;;11.96;100.00
19086;BME280;9675;51.538;6.728;2023-03-23T11:51:41;100167.97;;;12.00;100.00
19086;BME280;9675;51.538;6.728;2023-03-23T11:54:15;100165.50;;;12.03;100.00
19086;BME280;9675;51.538;6.728;2023-03-23T11:56:46;100168.19;;;12.06;100.00
19086;BME280;9675;51.538;6.728;2023-03-23T11:59:17;100154.50;;;12.09;100.00
19086;BME280;9675;51.538;6.728;2023-03-23T12:01:56;100155.50;;;12.12;100.00
19086;BME280;9675;51.538;6.728;2023-03-23T12:04:56;100171.06;;;12.15;100.00
19086;BME280;9675;51.538;6.728;2023-03-23T12:07:44;100176.38;;;12.20;100.00
19086;BME280;9675;51.538;6.728;2023-03-23T12:10:26;100173.03;;;12.22;100.00
19086;BME280;9675;51.538;6.728;2023-03-23T12:13:16;100163.66;;;12.26;100.00
19086;BME280;9675;51.538;6.728;2023-03-23T12:15:57;100181.88;;;12.30;100.00
19086;BME280;9675;51.538;6.728;2023-03-23T12:18:37;100186.22;;;12.31;100.00
19086;BME280;9675;51.538;6.728;2023-03-23T12:21:17;100187.13;;;12.33;100.00
19086;BME280;9675;51.538;6.728;2023-03-23T12:24:00;100194.16;;;12.38;100.00
19086;BME280;9675;51.538;6.728;2023-03-23T12:26:31;100194.19;;;12.39;100.00
19086;BME280;9675;51.538;6.728;2023-03-23T12:29:24;100183.84;;;12.39;100.00
19086;BME280;9675;51.538;6.728;2023-03-23T12:32:15;100182.28;;;12.43;100.00
19086;BME280;9675;51.538;6.728;2023-03-23T12:34:53;100181.41;;;12.44;100.00
19086;BME280;9675;51.538;6.728;2023-03-23T12:37:39;100184.13;;;12.47;100.00
19086;BME280;9675;51.538;6.728;2023-03-23T12:40:33;100181.63;;;12.50;100.00
19086;BME280;9675;51.538;6.728;2023-03-23T12:43:10;100190.25;;;12.50;100.00
19086;BME280;9675;51.538;6.728;2023-03-23T12:46:00;100192.97;;;12.55;100.00
19086;BME280;9675;51.538;6.728;2023-03-23T12:48:33;100192.13;;;12.56;100.00
19086;BME280;9675;51.538;6.728;2023-03-23T12:51:18;100188.88;;;12.61;100.00
19086;BME280;9675;51.538;6.728;2023-03-23T12:53:57;100182.94;;;12.64;100.00
19086;BME280;9675;51.538;6.728;2023-03-23T12:56:32;100177.03;;;12.68;100.00
19086;BME280;9675;51.538;6.728;2023-03-23T12:59:09;100179.69;;;12.71;100.00
19086;BME280;9675;51.538;6.728;2023-03-23T13:01:42;100174.72;;;12.77;100.00
19086;BME280;9675;51.538;6.728;2023-03-23T13:04:15;100167.19;;;12.85;100.00
19086;BME280;9675;51.538;6.728;2023-03-23T13:06:47;100157.81;;;12.88;100.00
19086;BME280;9675;51.538;6.728;2023-03-23T13:09:26;100166.66;;;12.96;100.00
19086;BME280;9675;51.538;6.728;2023-03-23T13:12:00;100165.19;;;13.04;100.00
19086;BME280;9675;51.538;6.728;2023-03-23T13:14:41;100148.94;;;13.08;100.00
19086;BME280;9675;51.538;6.728;2023-03-23T13:17:26;100125.88;;;13.14;100.00
19086;BME280;9675;51.538;6.728;2023-03-23T13:20:34;100131.28;;;13.24;100.00
19086;BME280;9675;51.538;6.728;2023-03-23T13:23:11;100126.34;;;13.33;100.00